createdAt,value
2023-01-13T00:03:56.025Z,48.8
2023-01-13T00:08:58.833Z,48.8
2023-01-13T00:13:58.729Z,48.8
2023-01-13T00:18:58.883Z,48.8
2023-01-13T00:23:58.996Z,48.9
2023-01-13T00:28:59.090Z,48.7
2023-01-13T00:33:59.057Z,48.7
2023-01-13T00:38:59.339Z,48.7
2023-01-13T00:43:59.359Z,48.7
2023-01-13T00:48:59.635Z,48.7
2023-01-13T00:54:00.130Z,48.7
2023-01-13T00:59:00.240Z,48.7
2023-01-13T01:04:00.494Z,48.8
2023-01-13T01:09:00.663Z,48.8
2023-01-13T01:14:00.917Z,48.7
2023-01-13T01:19:00.893Z,48.7
2023-01-13T01:24:01.332Z,48.9
2023-01-13T01:29:04.237Z,48.7
2023-01-13T01:34:03.508Z,48.7
2023-01-13T01:39:03.819Z,48.5
2023-01-13T01:44:04.102Z,48.7
2023-01-13T01:49:04.406Z,48.7
2023-01-13T01:54:04.842Z,48.7
2023-01-13T01:59:05.061Z,48.6
2023-01-13T02:04:04.877Z,48.8
2023-01-13T02:09:05.214Z,48.6
2023-01-13T02:14:05.419Z,48.7
2023-01-13T02:19:05.696Z,48.7
2023-01-13T02:24:05.812Z,48.6
2023-01-13T02:29:05.939Z,48.5
2023-01-13T02:34:06.905Z,48.7
2023-01-13T02:39:06.949Z,48.6
2023-01-13T02:44:07.175Z,48.7
2023-01-13T02:49:07.336Z,48.8
2023-01-13T02:54:07.454Z,48.6
2023-01-13T02:59:10.257Z,48.8
2023-01-13T03:04:10.032Z,48.9
2023-01-13T03:09:10.169Z,48.8
2023-01-13T03:14:13.182Z,48.9
2023-01-13T03:19:12.741Z,48.9
2023-01-13T03:24:13.276Z,49
2023-01-13T03:29:13.655Z,48.9
2023-01-13T03:34:14.019Z,49
2023-01-13T03:39:14.354Z,49.1
2023-01-13T03:44:16.372Z,49.2
2023-01-13T03:49:16.436Z,49.1
2023-01-13T03:54:16.738Z,49
2023-01-13T03:59:16.961Z,49.3
2023-01-13T04:04:16.958Z,49.2
2023-01-13T04:09:18.064Z,49.3
2023-01-13T04:14:18.286Z,49.3
2023-01-13T04:19:18.604Z,49.3
2023-01-13T04:24:18.726Z,49.4
2023-01-13T04:29:18.833Z,49.3
2023-01-13T04:34:19.117Z,49.2
2023-01-13T04:39:19.041Z,49.3
2023-01-13T04:44:19.219Z,49.2
2023-01-13T04:49:19.676Z,49.4
2023-01-13T04:54:19.684Z,49.4
2023-01-13T04:59:19.865Z,49.4
2023-01-13T05:04:19.964Z,49.5
2023-01-13T05:09:22.759Z,49.7
2023-01-13T05:14:24.396Z,49.4
2023-01-13T05:19:25.203Z,49.5
2023-01-13T05:24:28.154Z,49.5
2023-01-13T05:29:27.830Z,49.5
2023-01-13T05:34:28.063Z,50
2023-01-13T05:39:28.204Z,49.9
2023-01-13T05:44:28.430Z,50
2023-01-13T05:49:28.716Z,50
2023-01-13T05:54:31.483Z,50.1
2023-01-13T05:59:31.126Z,50.1
2023-01-13T06:04:31.274Z,50.1
2023-01-13T06:09:31.453Z,50
2023-01-13T06:14:31.761Z,50.2
2023-01-13T06:19:32.015Z,50.1
2023-01-13T06:24:32.066Z,50.1
2023-01-13T06:29:32.040Z,50
2023-01-13T06:34:32.274Z,50
2023-01-13T06:39:32.736Z,49.7
2023-01-13T06:44:33.019Z,49.7
2023-01-13T06:49:33.304Z,49.5
2023-01-13T06:54:33.415Z,49.5
2023-01-13T06:59:33.609Z,49.7
2023-01-13T07:04:33.819Z,49.9
2023-01-13T07:09:34.159Z,49.9
2023-01-13T07:14:34.306Z,49.9
2023-01-13T07:19:34.495Z,49.9
2023-01-13T07:24:34.739Z,49.9
2023-01-13T07:29:35.099Z,49.9
2023-01-13T07:34:35.262Z,49.9
2023-01-13T07:39:39.216Z,50
2023-01-13T07:44:41.611Z,50
2023-01-13T07:49:41.348Z,49.9
2023-01-13T07:54:42.764Z,49.8
2023-01-13T07:59:43.011Z,49.8
2023-01-13T08:04:45.959Z,49.7
2023-01-13T08:09:45.809Z,49.7
2023-01-13T08:14:45.852Z,49.7
2023-01-13T08:19:45.987Z,49.6
2023-01-13T08:24:46.294Z,49.4
2023-01-13T08:29:46.327Z,49.4
2023-01-13T08:34:46.462Z,49.4
2023-01-13T08:39:46.687Z,49.4
2023-01-13T08:44:47.037Z,49.2
2023-01-13T08:49:47.171Z,49.2
2023-01-13T08:54:50.074Z,49.1
2023-01-13T08:59:49.963Z,49
2023-01-13T09:04:50.298Z,49
2023-01-13T09:09:50.575Z,49
2023-01-13T09:14:50.797Z,48.9
2023-01-13T09:19:53.874Z,48.8
2023-01-13T09:24:53.627Z,48.8
2023-01-13T09:29:53.778Z,48.8
2023-01-13T09:34:53.622Z,49
2023-01-13T09:39:54.063Z,49
2023-01-13T09:44:54.331Z,49
2023-01-13T09:49:54.603Z,49
2023-01-13T09:54:54.822Z,49.1
2023-01-13T09:59:55.141Z,49.1
2023-01-13T10:04:58.158Z,49
2023-01-13T10:09:57.809Z,49
2023-01-13T10:14:58.058Z,49
2023-01-13T10:19:58.037Z,49
2023-01-13T10:25:01.011Z,49.1
2023-01-13T10:30:00.872Z,49.1
2023-01-13T10:35:00.666Z,49
2023-01-13T10:40:00.921Z,49
2023-01-13T10:45:01.233Z,49
2023-01-13T10:50:01.516Z,48.8
2023-01-13T10:55:01.771Z,48.8
2023-01-13T11:00:01.900Z,48.7
2023-01-13T11:05:02.336Z,48.4
2023-01-13T11:10:02.679Z,48.2
2023-01-13T11:15:02.888Z,48.2
2023-01-13T11:20:03.068Z,48.2
2023-01-13T11:25:03.236Z,48.1
2023-01-13T11:30:03.455Z,48
2023-01-13T11:35:02.568Z,48
2023-01-13T11:40:03.220Z,48
2023-01-13T11:45:03.492Z,48
2023-01-13T11:50:03.532Z,47.9
2023-01-13T11:55:03.519Z,48.1
2023-01-13T12:00:03.690Z,48
2023-01-13T12:05:03.994Z,47.9
2023-01-13T12:10:05.132Z,47.8
2023-01-13T12:15:03.937Z,47.9
2023-01-13T12:20:04.141Z,47.8
2023-01-13T12:25:04.155Z,47.7
2023-01-13T12:30:04.463Z,47.8
2023-01-13T12:35:04.815Z,47.8
2023-01-13T12:40:05.005Z,47.5
2023-01-13T12:45:05.243Z,47.7
2023-01-13T12:50:05.338Z,47.6
2023-01-13T12:55:05.708Z,47.5
2023-01-13T13:00:08.719Z,47.5
2023-01-13T13:05:11.288Z,47.5
2023-01-13T13:10:10.960Z,47.6
2023-01-13T13:15:11.155Z,47.5
2023-01-13T13:20:11.394Z,47.5
2023-01-13T13:25:12.341Z,47.6
2023-01-13T13:30:12.359Z,47.5
2023-01-13T13:35:12.303Z,47.5
2023-01-13T13:40:12.535Z,47.3
2023-01-13T13:45:12.869Z,47.4
2023-01-13T13:50:13.041Z,47.4
2023-01-13T13:55:13.137Z,47.5
2023-01-13T14:00:13.315Z,47.4
2023-01-13T14:05:16.236Z,47.4
2023-01-13T14:10:15.956Z,47.5
2023-01-13T14:15:16.090Z,47.5
2023-01-13T14:20:16.304Z,47.5
2023-01-13T14:25:16.536Z,47.5
2023-01-13T14:30:16.831Z,47.4
2023-01-13T14:35:16.911Z,47.4
2023-01-13T14:40:17.311Z,47.3
2023-01-13T14:45:17.846Z,47.5
2023-01-13T14:50:20.737Z,47.5
2023-01-13T14:55:20.405Z,47.5
2023-01-13T15:00:20.614Z,47.5
2023-01-13T15:05:20.904Z,47.5
2023-01-13T15:10:21.136Z,47.8
2023-01-13T15:15:21.261Z,47.5
2023-01-13T15:20:21.191Z,47.5
2023-01-13T15:25:21.437Z,47.4
2023-01-13T15:30:24.316Z,47.5
2023-01-13T15:35:24.068Z,47.6
2023-01-13T15:40:24.011Z,47.5
2023-01-13T15:45:24.121Z,47.4
2023-01-13T15:50:24.048Z,47.6
2023-01-13T15:55:24.300Z,47.6
2023-01-13T16:00:24.592Z,47.4
2023-01-13T16:05:24.502Z,47.7
2023-01-13T16:10:27.389Z,47.5
2023-01-13T16:15:30.047Z,47.6
2023-01-13T16:20:32.568Z,47.6
2023-01-13T16:25:32.001Z,47.6
2023-01-13T16:30:32.088Z,47.6
2023-01-13T16:35:32.133Z,47.7
2023-01-13T16:40:32.381Z,47.5
2023-01-13T16:45:32.605Z,47.5
2023-01-13T16:50:32.749Z,47.7
2023-01-13T16:55:35.493Z,47.6
2023-01-13T17:00:37.895Z,47.6
2023-01-13T17:05:40.284Z,47.7
2023-01-13T17:10:39.997Z,47.7
2023-01-13T17:15:42.931Z,47.6
2023-01-13T17:20:42.677Z,47.5
2023-01-13T17:25:42.765Z,47.5
2023-01-13T17:30:43.060Z,47.7
2023-01-13T17:35:43.262Z,47.6
2023-01-13T17:40:46.404Z,47.8
2023-01-13T17:45:45.920Z,47.7
2023-01-13T17:50:48.842Z,47.6
2023-01-13T17:55:48.384Z,47.6
2023-01-13T18:00:48.454Z,47.7
2023-01-13T18:05:48.538Z,47.6
2023-01-13T18:10:48.583Z,47.6
2023-01-13T18:15:48.418Z,47.6
2023-01-13T18:20:48.187Z,47.9
2023-01-13T18:25:48.348Z,48
2023-01-13T18:30:48.306Z,48.2
2023-01-13T18:35:48.331Z,48.2
2023-01-13T18:40:48.644Z,48.4
2023-01-13T18:45:48.754Z,48.5
2023-01-13T18:50:49.077Z,48.6
2023-01-13T18:55:49.174Z,48.6
2023-01-13T19:00:52.059Z,48.6
2023-01-13T19:05:51.784Z,48.7
2023-01-13T19:10:52.104Z,48.8
2023-01-13T19:15:54.846Z,48.7
2023-01-13T19:20:54.576Z,48.8
2023-01-13T19:25:54.490Z,48.9
2023-01-13T19:30:54.655Z,49
2023-01-13T19:35:54.911Z,48.8
2023-01-13T19:40:55.044Z,48.9
2023-01-13T19:45:55.380Z,48.9
2023-01-13T19:50:56.511Z,49
2023-01-13T19:55:56.513Z,49
2023-01-13T20:00:59.526Z,49.1
2023-01-13T20:05:59.110Z,49.1
2023-01-13T20:10:59.516Z,49.2
2023-01-13T20:15:59.483Z,49.1
2023-01-13T20:20:59.415Z,49.3
2023-01-13T20:25:59.461Z,49.2
2023-01-13T20:30:59.531Z,49.3
2023-01-13T20:36:02.582Z,49.2
2023-01-13T20:41:02.248Z,49.3
2023-01-13T20:46:03.343Z,49.3
2023-01-13T20:51:04.284Z,49.3
2023-01-13T20:56:04.176Z,49.4
2023-01-13T21:01:04.446Z,49.3
2023-01-13T21:06:04.316Z,49.3
2023-01-13T21:11:05.431Z,49.4
2023-01-13T21:16:05.551Z,49.3
2023-01-13T21:21:05.698Z,49.4
2023-01-13T21:26:05.948Z,49.3
2023-01-13T21:31:06.081Z,49.3
2023-01-13T21:36:06.488Z,49.2
2023-01-13T21:41:09.556Z,49.3
2023-01-13T21:46:11.996Z,49.3
2023-01-13T21:51:11.786Z,49.4
2023-01-13T21:56:12.108Z,49.4
2023-01-13T22:01:12.472Z,49.4
2023-01-13T22:06:12.588Z,49.6
2023-01-13T22:11:15.591Z,49.4
2023-01-13T22:16:14.931Z,49.6
2023-01-13T22:21:15.191Z,49.5
2023-01-13T22:26:15.288Z,49.5
2023-01-13T22:31:15.869Z,49.4
2023-01-13T22:36:16.236Z,49.5
2023-01-13T22:41:16.374Z,49.5
2023-01-13T22:46:16.782Z,49.6
2023-01-13T22:51:19.598Z,49.7
2023-01-13T22:56:22.127Z,49.6
2023-01-13T23:01:22.032Z,49.7
2023-01-13T23:06:22.283Z,49.7
2023-01-13T23:11:22.639Z,49.7
2023-01-13T23:16:23.085Z,49.7
2023-01-13T23:21:23.430Z,49.7
2023-01-13T23:26:26.418Z,49.7
2023-01-13T23:31:26.164Z,49.7
2023-01-13T23:36:26.214Z,49.7
2023-01-13T23:41:26.744Z,49.7
2023-01-13T23:46:27.088Z,49.8
2023-01-13T23:51:27.043Z,49.8
2023-01-13T23:56:27.476Z,49.7
